createdAt,value
2022-11-18T00:00:47.831Z,2.50
2022-11-18T00:01:48.078Z,2.40
2022-11-18T00:02:48.244Z,2.60
2022-11-18T00:03:48.551Z,2.10
2022-11-18T00:04:48.968Z,2.40
2022-11-18T00:05:49.113Z,2.40
2022-11-18T00:06:49.413Z,2.20
2022-11-18T00:07:49.720Z,2.50
2022-11-18T00:08:50.064Z,2.50
2022-11-18T00:09:51.254Z,2.40
2022-11-18T00:10:50.710Z,2.50
2022-11-18T00:11:50.985Z,2.30
2022-11-18T00:12:51.277Z,2.00
2022-11-18T00:13:51.600Z,2.60
2022-11-18T00:14:51.905Z,2.40
2022-11-18T00:15:52.233Z,2.20
2022-11-18T00:16:52.526Z,2.40
2022-11-18T00:17:52.843Z,2.20
2022-11-18T00:18:53.128Z,2.10
2022-11-18T00:19:53.428Z,2.30
2022-11-18T00:20:53.715Z,2.10
2022-11-18T00:21:53.951Z,2.10
2022-11-18T00:22:54.307Z,2.30
2022-11-18T00:23:54.550Z,2.20
2022-11-18T00:24:54.960Z,2.30
2022-11-18T00:25:55.138Z,2.10
2022-11-18T00:26:55.455Z,2.20
2022-11-18T00:27:55.797Z,2.30
2022-11-18T00:28:55.981Z,2.20
2022-11-18T00:29:56.327Z,2.30
2022-11-18T00:30:56.677Z,1.90
2022-11-18T00:31:56.821Z,2.40
2022-11-18T00:32:57.184Z,2.40
2022-11-18T00:33:57.519Z,2.30
2022-11-18T00:34:57.797Z,2.10
2022-11-18T00:35:58.113Z,2.40
2022-11-18T00:36:58.469Z,2.10
2022-11-18T00:37:58.738Z,2.00
2022-11-18T00:38:59.048Z,2.10
2022-11-18T00:39:59.455Z,2.10
2022-11-18T00:40:59.619Z,2.30
2022-11-18T00:41:59.903Z,2.00
2022-11-18T00:43:00.236Z,2.60
2022-11-18T00:44:00.583Z,2.30
2022-11-18T00:45:00.809Z,2.30
2022-11-18T00:46:00.950Z,2.30
2022-11-18T00:47:01.322Z,2.20
2022-11-18T00:48:01.634Z,2.40
2022-11-18T00:49:01.935Z,2.40
2022-11-18T00:50:02.287Z,2.20
2022-11-18T00:51:02.563Z,2.40
2022-11-18T00:52:02.882Z,2.30
2022-11-18T00:53:03.178Z,2.30
2022-11-18T00:54:03.439Z,2.20
2022-11-18T00:55:03.805Z,2.40
2022-11-18T00:56:04.093Z,2.20
2022-11-18T00:57:04.372Z,2.30
2022-11-18T00:58:04.639Z,2.50
2022-11-18T00:59:04.980Z,2.60
2022-11-18T01:00:05.306Z,2.30
2022-11-18T01:01:05.635Z,2.50
2022-11-18T01:02:06.076Z,2.50
2022-11-18T01:03:06.225Z,2.40
2022-11-18T01:04:06.495Z,2.50
2022-11-18T01:05:06.864Z,2.40
2022-11-18T01:06:07.141Z,2.40
2022-11-18T01:07:07.477Z,2.30
2022-11-18T01:08:07.742Z,2.20
2022-11-18T01:09:08.110Z,2.40
2022-11-18T01:10:09.365Z,2.40
2022-11-18T01:11:08.760Z,2.60
2022-11-18T01:12:08.927Z,2.60
2022-11-18T01:13:09.249Z,2.50
2022-11-18T01:14:09.522Z,2.40
2022-11-18T01:15:09.808Z,2.60
2022-11-18T01:16:10.145Z,2.50
2022-11-18T01:17:10.454Z,2.50
2022-11-18T01:18:10.773Z,2.70
2022-11-18T01:19:11.528Z,2.80
2022-11-18T01:20:11.382Z,2.50
2022-11-18T01:21:11.780Z,2.70
2022-11-18T01:22:11.957Z,2.60
2022-11-18T01:23:12.314Z,2.90
2022-11-18T01:24:12.585Z,2.70
2022-11-18T01:25:12.880Z,2.80
2022-11-18T01:26:13.174Z,2.70
2022-11-18T01:27:13.461Z,3.00
2022-11-18T01:28:16.479Z,2.70
2022-11-18T01:29:15.482Z,2.70
2022-11-18T01:30:14.542Z,2.70
2022-11-18T01:31:14.677Z,3.20
2022-11-18T01:32:24.364Z,2.90
2022-11-18T01:33:16.297Z,2.80
2022-11-18T01:34:15.625Z,3.10
2022-11-18T01:35:15.924Z,3.30
2022-11-18T01:36:16.308Z,2.70
2022-11-18T01:37:16.447Z,3.00
2022-11-18T01:38:16.753Z,2.90
2022-11-18T01:39:17.329Z,3.10
2022-11-18T01:40:17.455Z,3.00
2022-11-18T01:41:17.661Z,3.20
2022-11-18T01:42:17.933Z,3.00
2022-11-18T01:43:18.269Z,3.40
2022-11-18T01:44:18.566Z,3.30
2022-11-18T01:45:18.926Z,3.20
2022-11-18T01:46:19.225Z,3.20
2022-11-18T01:47:19.576Z,3.10
2022-11-18T01:48:19.757Z,3.10
2022-11-18T01:49:20.216Z,3.20
2022-11-18T01:50:20.332Z,3.20
2022-11-18T01:51:20.628Z,3.20
2022-11-18T01:52:20.971Z,3.50
2022-11-18T01:53:21.293Z,3.50
2022-11-18T01:54:21.629Z,3.40
2022-11-18T01:55:21.810Z,3.30
2022-11-18T01:56:22.216Z,3.70
2022-11-18T01:57:22.448Z,3.40
2022-11-18T01:58:22.614Z,3.70
2022-11-18T01:59:22.968Z,3.50
2022-11-18T02:00:23.181Z,3.60
2022-11-18T02:01:23.560Z,3.80
2022-11-18T02:02:23.732Z,3.70
2022-11-18T02:03:24.133Z,3.60
2022-11-18T02:04:24.836Z,3.60
2022-11-18T02:05:24.701Z,3.80
2022-11-18T02:06:24.979Z,3.60
2022-11-18T02:07:25.393Z,3.60
2022-11-18T02:08:25.639Z,3.90
2022-11-18T02:09:25.844Z,3.70
2022-11-18T02:10:26.158Z,4.10
2022-11-18T02:11:26.500Z,3.70
2022-11-18T02:12:26.827Z,3.90
2022-11-18T02:13:27.166Z,3.90
2022-11-18T02:14:27.442Z,3.80
2022-11-18T02:15:27.807Z,4.00
2022-11-18T02:16:28.039Z,3.80
2022-11-18T02:17:28.371Z,3.90
2022-11-18T02:18:28.654Z,4.10
2022-11-18T02:19:29.158Z,4.00
2022-11-18T02:20:29.394Z,3.70
2022-11-18T02:21:29.689Z,3.60
2022-11-18T02:22:29.952Z,3.90
2022-11-18T02:23:30.121Z,4.00
2022-11-18T02:24:30.384Z,3.90
2022-11-18T02:25:30.675Z,3.80
2022-11-18T02:26:30.991Z,3.80
2022-11-18T02:27:31.298Z,3.80
2022-11-18T02:28:31.601Z,3.70
2022-11-18T02:29:31.918Z,3.80
2022-11-18T02:30:32.227Z,3.80
2022-11-18T02:31:32.534Z,3.60
2022-11-18T02:32:32.835Z,3.50
2022-11-18T02:33:33.181Z,3.60
2022-11-18T02:34:34.460Z,3.40
2022-11-18T02:35:33.741Z,3.70
2022-11-18T02:36:34.048Z,3.40
2022-11-18T02:37:34.362Z,3.70
2022-11-18T02:38:34.686Z,3.70
2022-11-18T02:39:35.000Z,3.50
2022-11-18T02:40:35.313Z,3.60
2022-11-18T02:41:35.623Z,3.60
2022-11-18T02:42:35.902Z,3.90
2022-11-18T02:43:36.214Z,3.70
2022-11-18T02:44:36.589Z,3.60
2022-11-18T02:45:36.808Z,3.70
2022-11-18T02:46:36.986Z,3.90
2022-11-18T02:47:37.324Z,3.60
2022-11-18T02:48:37.609Z,3.90
2022-11-18T02:49:37.959Z,3.70
2022-11-18T02:50:38.258Z,3.70
2022-11-18T02:51:38.600Z,3.60
2022-11-18T02:52:38.904Z,3.90
2022-11-18T02:53:39.255Z,3.70
2022-11-18T02:54:39.544Z,3.70
2022-11-18T02:55:39.858Z,4.00
2022-11-18T02:56:40.151Z,3.90
2022-11-18T02:57:40.535Z,3.80
2022-11-18T02:58:40.676Z,4.10
2022-11-18T02:59:41.090Z,3.90
2022-11-18T03:00:41.286Z,4.20
2022-11-18T03:01:41.628Z,4.10
2022-11-18T03:02:42.059Z,4.20
2022-11-18T03:03:42.228Z,3.90
2022-11-18T03:04:42.599Z,4.30
2022-11-18T03:05:43.253Z,4.20
2022-11-18T03:06:43.030Z,4.10
2022-11-18T03:07:43.378Z,4.00
2022-11-18T03:08:43.697Z,4.10
2022-11-18T03:09:43.840Z,3.90
2022-11-18T03:10:44.147Z,3.90
2022-11-18T03:11:44.501Z,4.10
2022-11-18T03:12:44.785Z,4.00
2022-11-18T03:13:45.101Z,3.90
2022-11-18T03:14:45.437Z,4.20
2022-11-18T03:15:45.727Z,3.90
2022-11-18T03:16:46.037Z,4.30
2022-11-18T03:17:46.405Z,4.30
2022-11-18T03:18:46.615Z,4.00
2022-11-18T03:19:47.030Z,3.90
2022-11-18T03:20:47.259Z,4.30
2022-11-18T03:21:47.608Z,4.10
2022-11-18T03:22:47.883Z,4.40
2022-11-18T03:23:48.192Z,4.10
2022-11-18T03:24:48.526Z,4.20
2022-11-18T03:25:48.887Z,4.20
2022-11-18T03:26:49.067Z,4.10
2022-11-18T03:27:49.380Z,4.10
2022-11-18T03:28:49.666Z,4.10
2022-11-18T03:29:49.946Z,4.30
2022-11-18T03:30:50.263Z,4.20
2022-11-18T03:31:50.608Z,4.10
2022-11-18T03:32:50.941Z,3.90
2022-11-18T03:33:51.256Z,4.20
2022-11-18T03:34:51.538Z,4.30
2022-11-18T03:35:51.853Z,4.20
2022-11-18T03:36:52.374Z,4.50
2022-11-18T03:37:52.537Z,4.20
2022-11-18T03:38:52.752Z,4.10
2022-11-18T03:39:53.053Z,4.20
2022-11-18T03:40:53.382Z,4.50
2022-11-18T03:41:53.692Z,4.30
2022-11-18T03:42:54.023Z,4.30
2022-11-18T03:43:54.355Z,4.40
2022-11-18T03:44:54.505Z,4.30
2022-11-18T03:45:54.891Z,4.30
2022-11-18T03:46:55.178Z,4.60
2022-11-18T03:47:55.603Z,4.50
2022-11-18T03:49:01.459Z,4.40
2022-11-18T03:49:56.090Z,4.30
2022-11-18T03:50:56.275Z,4.50
2022-11-18T03:51:56.637Z,4.40
2022-11-18T03:52:56.802Z,4.50
2022-11-18T03:53:57.165Z,4.70
2022-11-18T03:54:57.365Z,4.90
2022-11-18T03:55:57.745Z,5.00
2022-11-18T03:56:57.945Z,4.80
2022-11-18T03:57:58.307Z,4.90
2022-11-18T03:58:58.542Z,4.90
2022-11-18T03:59:58.842Z,4.50
2022-11-18T04:00:59.062Z,5.00
2022-11-18T04:01:59.581Z,5.00
2022-11-18T04:02:59.756Z,5.00
2022-11-18T04:03:59.987Z,5.20
2022-11-18T04:05:00.230Z,4.80
2022-11-18T04:06:00.462Z,4.90
2022-11-18T04:07:00.797Z,5.20
2022-11-18T04:08:01.081Z,5.00
2022-11-18T04:09:01.322Z,5.00
2022-11-18T04:10:01.708Z,5.10
2022-11-18T04:11:01.991Z,5.10
2022-11-18T04:12:02.223Z,5.10
2022-11-18T04:13:06.187Z,5.50
2022-11-18T04:14:02.795Z,5.20
2022-11-18T04:15:02.950Z,5.80
2022-11-18T04:16:03.200Z,5.60
2022-11-18T04:17:03.397Z,5.80
2022-11-18T04:18:03.875Z,5.90
2022-11-18T04:19:18.347Z,6.30
2022-11-18T04:20:05.376Z,6.50
2022-11-18T04:21:04.567Z,6.40
2022-11-18T04:22:04.869Z,6.40
2022-11-18T04:23:05.174Z,6.70
2022-11-18T04:24:05.529Z,7.30
2022-11-18T04:25:05.861Z,7.50
2022-11-18T04:26:06.205Z,6.90
2022-11-18T04:27:06.423Z,7.00
2022-11-18T04:28:06.833Z,6.90
2022-11-18T04:29:07.001Z,7.00
2022-11-18T04:30:07.281Z,7.50
2022-11-18T04:31:07.458Z,6.90
2022-11-18T04:32:07.832Z,6.80
2022-11-18T04:33:08.047Z,7.10
2022-11-18T04:34:08.433Z,6.90
2022-11-18T04:35:08.622Z,6.50
2022-11-18T04:36:08.957Z,7.00
2022-11-18T04:37:09.269Z,6.60
2022-11-18T04:38:09.615Z,6.90
2022-11-18T04:39:09.798Z,6.80
2022-11-18T04:40:10.095Z,6.90
2022-11-18T04:41:10.332Z,6.20
2022-11-18T04:42:10.565Z,6.50
2022-11-18T04:43:10.870Z,6.00
2022-11-18T04:44:11.136Z,5.90
2022-11-18T04:45:11.305Z,5.70
2022-11-18T04:46:11.705Z,5.70
2022-11-18T04:47:11.934Z,5.80
2022-11-18T04:48:12.238Z,5.50
2022-11-18T04:49:12.543Z,5.20
2022-11-18T04:50:12.871Z,5.30
2022-11-18T04:51:13.181Z,5.10
2022-11-18T04:52:13.484Z,4.70
2022-11-18T04:53:13.818Z,4.70
2022-11-18T04:54:14.137Z,4.00
2022-11-18T04:55:14.422Z,3.60
2022-11-18T04:56:14.734Z,3.60
2022-11-18T04:57:15.062Z,3.00
2022-11-18T04:58:15.449Z,2.80
2022-11-18T04:59:16.087Z,2.80
2022-11-18T05:00:15.884Z,2.60
2022-11-18T05:01:16.261Z,2.60
2022-11-18T05:02:16.443Z,2.40
2022-11-18T05:03:16.777Z,2.20
2022-11-18T05:04:16.973Z,2.10
2022-11-18T05:05:17.271Z,2.00
2022-11-18T05:06:17.680Z,2.20
2022-11-18T05:07:17.883Z,2.30
2022-11-18T05:08:18.196Z,2.20
2022-11-18T05:09:18.791Z,2.10
2022-11-18T05:10:18.842Z,1.80
2022-11-18T05:11:19.151Z,1.90
2022-11-18T05:12:19.478Z,1.80
2022-11-18T05:13:19.775Z,1.80
2022-11-18T05:14:19.943Z,1.60
2022-11-18T05:15:20.248Z,1.60
2022-11-18T05:16:20.549Z,1.80
2022-11-18T05:17:20.892Z,1.70
2022-11-18T05:18:21.179Z,1.70
2022-11-18T05:19:21.368Z,1.60
2022-11-18T05:20:21.637Z,1.60
2022-11-18T05:21:21.989Z,1.80
2022-11-18T05:22:22.239Z,1.70
2022-11-18T05:23:22.576Z,1.70
2022-11-18T05:24:22.776Z,1.80
2022-11-18T05:25:23.061Z,1.80
2022-11-18T05:26:23.366Z,1.60
2022-11-18T05:27:23.608Z,1.80
2022-11-18T05:28:24.025Z,1.70
2022-11-18T05:29:24.209Z,1.50
2022-11-18T05:30:24.509Z,1.60
2022-11-18T05:31:24.814Z,1.30
2022-11-18T05:32:25.082Z,1.20
2022-11-18T05:33:25.285Z,1.20
2022-11-18T05:34:25.673Z,1.30
2022-11-18T05:35:25.903Z,1.30
2022-11-18T05:36:26.211Z,1.20
2022-11-18T05:37:26.548Z,1.10
2022-11-18T05:38:26.896Z,1.30
2022-11-18T05:39:27.182Z,1.30
2022-11-18T05:40:27.509Z,1.30
2022-11-18T05:41:27.770Z,1.20
2022-11-18T05:42:28.092Z,1.30
2022-11-18T05:43:28.397Z,1.20
2022-11-18T05:44:28.657Z,1.30
2022-11-18T05:45:29.086Z,1.10
2022-11-18T05:46:29.261Z,1.30
2022-11-18T05:47:29.559Z,1.30
2022-11-18T05:48:29.849Z,1.20
2022-11-18T05:49:30.188Z,1.10
2022-11-18T05:50:30.502Z,1.10
2022-11-18T05:51:30.730Z,1.30
2022-11-18T05:52:31.125Z,1.30
2022-11-18T05:53:31.412Z,1.20
2022-11-18T05:54:31.713Z,1.20
2022-11-18T05:55:31.992Z,1.20
2022-11-18T05:56:32.270Z,1.20
2022-11-18T05:57:32.424Z,1.20
2022-11-18T05:58:32.664Z,1.40
2022-11-18T05:59:33.005Z,1.80
2022-11-18T06:00:33.316Z,1.30
2022-11-18T06:01:33.610Z,1.30
2022-11-18T06:02:34.010Z,2.20
2022-11-18T06:03:34.210Z,1.30
2022-11-18T06:04:34.995Z,1.30
2022-11-18T06:05:34.756Z,1.20
2022-11-18T06:06:34.994Z,1.40
2022-11-18T06:07:35.361Z,1.30
2022-11-18T06:08:35.623Z,1.30
2022-11-18T06:09:35.907Z,1.40
2022-11-18T06:10:36.246Z,1.40
2022-11-18T06:11:36.573Z,1.40
2022-11-18T06:12:36.822Z,1.30
2022-11-18T06:13:37.033Z,1.30
2022-11-18T06:14:37.377Z,1.10
2022-11-18T06:15:37.657Z,1.30
2022-11-18T06:16:40.884Z,1.10
2022-11-18T06:17:38.221Z,1.00
2022-11-18T06:18:38.457Z,1.20
2022-11-18T06:19:38.750Z,1.10
2022-11-18T06:20:39.031Z,1.10
2022-11-18T06:21:39.306Z,1.40
2022-11-18T06:22:44.977Z,1.10
2022-11-18T06:23:40.753Z,1.20
2022-11-18T06:24:40.040Z,1.30
2022-11-18T06:25:40.317Z,1.20
2022-11-18T06:26:40.611Z,1.20
2022-11-18T06:27:40.765Z,1.20
2022-11-18T06:28:41.193Z,1.20
2022-11-18T06:29:41.432Z,1.20
2022-11-18T06:30:41.828Z,1.30
2022-11-18T06:31:42.084Z,1.20
2022-11-18T06:32:42.318Z,1.00
2022-11-18T06:33:42.584Z,1.10
2022-11-18T06:34:42.880Z,1.10
2022-11-18T06:35:43.219Z,1.10
2022-11-18T06:36:43.481Z,1.00
2022-11-18T06:37:43.699Z,1.10
2022-11-18T06:38:44.102Z,1.20
2022-11-18T06:39:44.272Z,3.20
2022-11-18T06:40:44.634Z,1.10
2022-11-18T06:41:44.836Z,1.20
2022-11-18T06:42:45.233Z,1.10
2022-11-18T06:43:45.485Z,1.10
2022-11-18T06:44:45.706Z,1.40
2022-11-18T06:45:45.948Z,1.20
2022-11-18T06:46:46.269Z,1.40
2022-11-18T06:47:46.551Z,1.30
2022-11-18T06:48:46.769Z,1.20
2022-11-18T06:49:47.148Z,1.40
2022-11-18T06:50:47.390Z,1.20
2022-11-18T06:51:47.592Z,1.20
2022-11-18T06:52:47.897Z,1.20
2022-11-18T06:53:48.198Z,1.20
2022-11-18T06:54:48.489Z,1.90
2022-11-18T06:55:48.696Z,1.50
2022-11-18T06:56:48.949Z,1.20
2022-11-18T06:57:49.210Z,1.30
2022-11-18T06:58:49.626Z,1.40
2022-11-18T06:59:49.686Z,1.30
2022-11-18T07:00:50.007Z,1.20
2022-11-18T07:01:50.207Z,1.30
2022-11-18T07:02:50.502Z,1.30
2022-11-18T07:03:50.731Z,1.30
2022-11-18T07:04:51.511Z,1.50
2022-11-18T07:05:52.298Z,1.20
2022-11-18T07:06:51.599Z,1.20
2022-11-18T07:07:52.282Z,1.30
2022-11-18T07:08:52.005Z,1.20
2022-11-18T07:09:52.321Z,1.30
2022-11-18T07:10:52.541Z,1.20
2022-11-18T07:11:52.742Z,1.30
2022-11-18T07:12:53.091Z,1.40
2022-11-18T07:13:53.322Z,1.10
2022-11-18T07:14:53.630Z,1.30
2022-11-18T07:15:53.812Z,1.30
2022-11-18T07:16:54.082Z,1.30
2022-11-18T07:17:54.292Z,1.60
2022-11-18T07:18:54.676Z,1.50
2022-11-18T07:19:54.938Z,1.40
2022-11-18T07:20:55.167Z,1.60
2022-11-18T07:21:55.390Z,1.60
2022-11-18T07:22:55.657Z,1.20
2022-11-18T07:23:55.927Z,1.60
2022-11-18T07:24:56.187Z,1.60
2022-11-18T07:25:56.374Z,1.60
2022-11-18T07:26:56.754Z,2.20
2022-11-18T07:27:56.930Z,2.00
2022-11-18T07:28:57.322Z,1.70
2022-11-18T07:29:57.587Z,1.40
2022-11-18T07:30:58.709Z,2.80
2022-11-18T07:31:58.095Z,1.60
2022-11-18T07:32:58.417Z,1.30
2022-11-18T07:33:58.718Z,1.30
2022-11-18T07:34:58.954Z,1.30
2022-11-18T07:35:59.297Z,1.50
2022-11-18T07:36:59.543Z,1.40
2022-11-18T07:37:59.907Z,1.20
2022-11-18T07:39:00.119Z,1.50
2022-11-18T07:40:00.321Z,1.30
2022-11-18T07:41:00.573Z,1.20
2022-11-18T07:42:00.842Z,1.20
2022-11-18T07:43:01.982Z,1.30
2022-11-18T07:44:01.574Z,1.40
2022-11-18T07:45:01.639Z,1.40
2022-11-18T07:46:01.868Z,1.40
2022-11-18T07:47:02.261Z,1.40
2022-11-18T07:48:02.508Z,1.40
2022-11-18T07:49:02.779Z,1.20
2022-11-18T07:50:03.085Z,1.50
2022-11-18T07:51:03.283Z,1.50
2022-11-18T07:52:03.533Z,1.50
2022-11-18T07:53:03.864Z,1.70
2022-11-18T07:54:04.107Z,2.20
2022-11-18T07:55:04.421Z,1.70
2022-11-18T07:56:04.509Z,2.00
2022-11-18T07:57:04.919Z,2.10
2022-11-18T07:58:05.189Z,1.90
2022-11-18T07:59:05.427Z,2.10
2022-11-18T08:00:06.110Z,1.70
2022-11-18T08:01:06.508Z,1.60
2022-11-18T08:02:06.247Z,1.70
2022-11-18T08:03:06.718Z,1.80
2022-11-18T08:04:06.788Z,2.00
2022-11-18T08:05:07.190Z,6.40
2022-11-18T08:06:07.298Z,23.30
2022-11-18T08:07:07.636Z,1.90
2022-11-18T08:08:07.865Z,1.70
2022-11-18T08:09:08.131Z,1.40
2022-11-18T08:10:08.421Z,1.40
2022-11-18T08:11:08.672Z,1.80
2022-11-18T08:12:08.894Z,1.40
2022-11-18T08:13:09.204Z,1.40
2022-11-18T08:14:09.419Z,1.40
2022-11-18T08:15:09.738Z,1.30
2022-11-18T08:16:09.941Z,1.40
2022-11-18T08:17:12.066Z,1.40
2022-11-18T08:18:13.683Z,1.40
2022-11-18T08:19:10.695Z,1.40
2022-11-18T08:20:10.933Z,1.40
2022-11-18T08:21:11.265Z,1.40
2022-11-18T08:22:11.421Z,1.50
2022-11-18T08:23:11.739Z,1.80
2022-11-18T08:24:11.963Z,1.70
2022-11-18T08:25:12.244Z,1.40
2022-11-18T08:26:12.571Z,1.50
2022-11-18T08:27:12.757Z,1.50
2022-11-18T08:28:13.030Z,1.60
2022-11-18T08:29:13.303Z,1.70
2022-11-18T08:30:13.557Z,1.80
2022-11-18T08:31:13.809Z,1.50
2022-11-18T08:32:14.068Z,1.60
2022-11-18T08:33:14.332Z,1.60
2022-11-18T08:34:14.648Z,1.70
2022-11-18T08:35:14.955Z,2.10
2022-11-18T08:36:15.073Z,1.90
2022-11-18T08:37:15.338Z,1.90
2022-11-18T08:38:15.621Z,1.80
2022-11-18T08:39:16.659Z,2.10
2022-11-18T08:40:16.146Z,2.20
2022-11-18T08:41:16.352Z,1.70
2022-11-18T08:42:16.667Z,1.80
2022-11-18T08:43:17.015Z,1.80
2022-11-18T08:44:17.680Z,2.00
2022-11-18T08:45:17.462Z,1.90
2022-11-18T08:46:17.673Z,1.70
2022-11-18T08:47:18.186Z,1.80
2022-11-18T08:48:18.404Z,1.80
2022-11-18T08:49:18.910Z,1.70
2022-11-18T08:50:18.996Z,1.80
2022-11-18T08:51:19.247Z,1.60
2022-11-18T08:52:19.583Z,1.60
2022-11-18T08:53:19.811Z,1.70
2022-11-18T08:54:20.114Z,2.40
2022-11-18T08:55:20.336Z,2.40
2022-11-18T08:56:20.618Z,1.80
2022-11-18T08:57:20.855Z,2.50
2022-11-18T08:58:21.087Z,2.90
2022-11-18T08:59:21.496Z,2.60
2022-11-18T09:00:21.702Z,2.10
2022-11-18T09:01:22.036Z,2.30
2022-11-18T09:02:22.223Z,2.20
2022-11-18T09:03:22.541Z,2.20
2022-11-18T09:04:22.754Z,2.20
2022-11-18T09:05:22.965Z,2.40
2022-11-18T09:06:23.294Z,2.10
2022-11-18T09:07:23.817Z,2.20
2022-11-18T09:08:23.903Z,2.50
2022-11-18T09:09:24.519Z,3.30
2022-11-18T09:10:24.508Z,2.60
2022-11-18T09:11:24.901Z,2.60
2022-11-18T09:12:25.155Z,2.50
2022-11-18T09:13:53.320Z,2.30
2022-11-18T09:15:27.112Z,2.30
2022-11-18T09:16:28.133Z,1.90
2022-11-18T09:17:26.637Z,2.00
2022-11-18T09:18:26.910Z,2.00
2022-11-18T09:20:28.439Z,2.40
2022-11-18T09:21:27.675Z,2.50
2022-11-18T09:22:27.981Z,2.60
2022-11-18T09:23:28.184Z,2.10
2022-11-18T09:24:28.442Z,2.50
2022-11-18T09:25:28.766Z,2.00
2022-11-18T09:26:29.867Z,2.50
2022-11-18T09:27:29.288Z,2.80
2022-11-18T09:28:29.506Z,2.40
2022-11-18T09:29:29.735Z,2.30
2022-11-18T09:30:30.087Z,2.20
2022-11-18T09:31:30.335Z,2.60
2022-11-18T09:32:31.474Z,2.00
2022-11-18T09:33:30.902Z,2.10
2022-11-18T09:34:31.093Z,2.00
2022-11-18T09:35:31.456Z,2.20
2022-11-18T09:36:31.752Z,2.20
2022-11-18T09:37:32.021Z,2.50
2022-11-18T09:38:32.292Z,2.10
2022-11-18T09:39:32.488Z,2.20
2022-11-18T09:40:32.810Z,2.50
2022-11-18T09:41:33.038Z,2.70
2022-11-18T09:42:33.343Z,2.50
2022-11-18T09:43:33.571Z,3.00
2022-11-18T09:44:33.864Z,3.20
2022-11-18T09:45:34.106Z,3.10
2022-11-18T09:46:34.332Z,2.60
2022-11-18T09:47:34.584Z,2.50
2022-11-18T09:48:34.821Z,2.60
2022-11-18T09:49:35.117Z,2.80
2022-11-18T09:50:49.653Z,2.60
2022-11-18T09:51:36.612Z,2.20
2022-11-18T09:52:36.360Z,2.60
2022-11-18T09:53:36.262Z,2.30
2022-11-18T09:54:36.491Z,2.30
2022-11-18T09:55:36.767Z,2.10
2022-11-18T09:56:37.044Z,2.20
2022-11-18T09:57:37.398Z,2.40
2022-11-18T09:58:37.504Z,2.20
2022-11-18T09:59:37.824Z,2.70
2022-11-18T10:00:38.009Z,3.10
2022-11-18T10:01:38.308Z,2.70
2022-11-18T10:02:38.575Z,2.30
2022-11-18T10:03:38.850Z,3.90
2022-11-18T10:04:39.112Z,2.90
2022-11-18T10:05:39.383Z,5.40
2022-11-18T10:06:39.624Z,3.20
2022-11-18T10:07:40.021Z,2.30
2022-11-18T10:08:40.111Z,2.50
2022-11-18T10:09:40.503Z,2.40
2022-11-18T10:10:40.761Z,2.40
2022-11-18T10:11:43.376Z,3.00
2022-11-18T10:12:41.257Z,3.20
2022-11-18T10:13:41.525Z,3.40
2022-11-18T10:14:41.741Z,3.60
2022-11-18T10:15:41.996Z,3.40
2022-11-18T10:16:42.287Z,4.60
2022-11-18T10:17:42.539Z,4.40
2022-11-18T10:18:59.793Z,5.70
2022-11-18T10:19:44.110Z,4.20
2022-11-18T10:20:43.399Z,3.90
2022-11-18T10:21:43.786Z,3.90
2022-11-18T10:22:43.897Z,4.00
2022-11-18T10:23:44.433Z,4.40
2022-11-18T10:24:44.561Z,4.30
2022-11-18T10:25:44.762Z,4.50
2022-11-18T10:26:44.971Z,3.90
2022-11-18T10:27:45.268Z,4.10
2022-11-18T10:28:45.585Z,4.40
2022-11-18T10:29:45.861Z,4.30
2022-11-18T10:30:46.055Z,4.10
2022-11-18T10:31:46.328Z,4.40
2022-11-18T10:32:46.590Z,3.50
2022-11-18T10:33:46.867Z,3.70
2022-11-18T10:34:47.179Z,3.20
2022-11-18T10:35:47.391Z,4.30
2022-11-18T10:36:47.616Z,3.70
2022-11-18T10:38:06.692Z,3.20
2022-11-18T10:38:50.264Z,3.40
2022-11-18T10:39:48.509Z,3.20
2022-11-18T10:40:48.757Z,3.50
2022-11-18T10:41:48.956Z,3.20
2022-11-18T10:42:49.265Z,3.60
2022-11-18T10:43:50.535Z,3.60
2022-11-18T10:44:49.847Z,3.80
2022-11-18T10:45:50.118Z,4.20
2022-11-18T10:46:50.485Z,4.80
2022-11-18T10:47:50.742Z,5.70
2022-11-18T10:48:51.042Z,5.70
2022-11-18T10:49:51.287Z,4.90
2022-11-18T10:51:52.922Z,4.00
2022-11-18T10:52:52.184Z,4.70
2022-11-18T10:53:52.483Z,4.90
2022-11-18T10:54:53.876Z,4.80
2022-11-18T10:55:53.045Z,4.90
2022-11-18T10:56:57.766Z,4.90
2022-11-18T10:57:54.711Z,4.80
2022-11-18T10:58:54.006Z,4.80
2022-11-18T10:59:54.306Z,4.60
2022-11-18T11:00:54.599Z,4.10
2022-11-18T11:01:48.002Z,4.30
2022-11-18T11:01:54.922Z,3.60
2022-11-18T11:02:55.153Z,3.70
2022-11-18T11:03:55.454Z,4.20
2022-11-18T11:04:55.679Z,4.10
2022-11-18T11:05:55.972Z,4.40
2022-11-18T11:06:56.293Z,3.70
2022-11-18T11:08:14.363Z,3.80
2022-11-18T11:08:57.776Z,4.00
2022-11-18T11:09:57.043Z,4.10
2022-11-18T11:10:57.443Z,3.70
2022-11-18T11:11:57.530Z,4.00
2022-11-18T11:12:57.768Z,4.20
2022-11-18T11:13:58.031Z,3.80
2022-11-18T11:14:58.426Z,4.30
2022-11-18T11:15:58.624Z,4.10
2022-11-18T11:16:58.934Z,3.10
2022-11-18T11:17:59.256Z,3.20
2022-11-18T11:18:59.528Z,3.50
2022-11-18T11:19:59.765Z,3.20
2022-11-18T11:21:00.029Z,2.90
2022-11-18T11:22:00.298Z,3.30
2022-11-18T11:23:00.524Z,3.00
2022-11-18T11:24:00.819Z,3.90
2022-11-18T11:25:01.079Z,3.50
2022-11-18T11:28:18.189Z,3.80
2022-11-18T11:29:03.157Z,3.80
2022-11-18T11:30:02.346Z,4.50
2022-11-18T11:31:02.623Z,5.00
2022-11-18T11:32:02.967Z,4.50
2022-11-18T11:33:03.289Z,4.00
2022-11-18T11:34:03.510Z,3.70
2022-11-18T11:35:03.769Z,4.10
2022-11-18T11:36:04.031Z,5.50
2022-11-18T11:37:04.290Z,5.00
2022-11-18T11:38:04.533Z,6.90
2022-11-18T11:39:05.231Z,15.80
2022-11-18T11:40:05.202Z,6.60
2022-11-18T11:41:05.412Z,6.20
2022-11-18T11:42:05.691Z,3.50
2022-11-18T11:43:05.918Z,3.30
2022-11-18T11:44:06.183Z,2.70
2022-11-18T11:45:06.467Z,4.10
2022-11-18T11:46:06.746Z,3.10
2022-11-18T11:47:07.032Z,4.90
2022-11-18T11:48:07.309Z,5.40
2022-11-18T11:49:07.531Z,7.20
2022-11-18T11:50:07.787Z,6.60
2022-11-18T11:51:08.253Z,6.30
2022-11-18T11:52:08.408Z,4.20
2022-11-18T11:53:08.598Z,4.90
2022-11-18T11:54:08.894Z,7.20
2022-11-18T11:55:09.105Z,6.80
2022-11-18T11:56:09.381Z,6.90
2022-11-18T11:57:09.756Z,8.20
2022-11-18T11:58:09.921Z,9.20
2022-11-18T11:59:10.187Z,8.60
2022-11-18T12:00:10.505Z,7.00
2022-11-18T12:01:10.758Z,6.10
2022-11-18T12:02:11.058Z,5.50
2022-11-18T12:03:11.325Z,4.80
2022-11-18T12:04:11.578Z,4.10
2022-11-18T12:05:11.918Z,3.50
2022-11-18T12:06:12.193Z,3.10
2022-11-18T12:07:12.437Z,3.50
2022-11-18T12:08:12.677Z,2.80
2022-11-18T12:09:13.039Z,2.50
2022-11-18T12:10:13.337Z,2.50
2022-11-18T12:11:13.566Z,3.60
2022-11-18T12:12:13.842Z,4.10
2022-11-18T12:13:14.070Z,2.90
2022-11-18T12:14:14.309Z,5.90
2022-11-18T12:15:14.581Z,12.60
2022-11-18T12:16:14.892Z,17.50
2022-11-18T12:17:15.119Z,14.40
2022-11-18T12:18:15.399Z,9.70
2022-11-18T12:19:15.811Z,9.80
2022-11-18T12:20:15.929Z,6.70
2022-11-18T12:21:16.214Z,5.70
2022-11-18T12:22:16.473Z,5.60
2022-11-18T12:23:16.763Z,4.30
2022-11-18T12:24:16.990Z,5.10
2022-11-18T12:25:17.236Z,3.60
2022-11-18T12:26:17.519Z,3.30
2022-11-18T12:27:17.760Z,6.10
2022-11-18T12:28:18.062Z,3.90
2022-11-18T12:29:18.593Z,5.90
2022-11-18T12:30:18.638Z,4.40
2022-11-18T12:31:18.917Z,3.30
2022-11-18T12:32:19.196Z,3.60
2022-11-18T12:33:19.486Z,3.00
2022-11-18T12:34:19.726Z,3.60
2022-11-18T12:35:19.979Z,3.50
2022-11-18T12:36:20.250Z,4.30
2022-11-18T12:37:20.551Z,4.70
2022-11-18T12:38:20.811Z,4.70
2022-11-18T12:39:21.075Z,4.30
2022-11-18T12:40:21.288Z,5.40
2022-11-18T12:41:21.565Z,4.50
2022-11-18T12:42:21.853Z,4.00
2022-11-18T12:43:22.100Z,4.30
2022-11-18T12:44:22.399Z,3.00
2022-11-18T12:45:22.633Z,2.80
2022-11-18T12:46:22.856Z,4.50
2022-11-18T12:47:23.062Z,2.80
2022-11-18T12:48:27.359Z,2.70
2022-11-18T12:49:23.593Z,4.40
2022-11-18T12:50:23.852Z,8.40
2022-11-18T12:51:24.105Z,8.10
2022-11-18T12:52:24.358Z,8.00
2022-11-18T12:53:24.618Z,7.20
2022-11-18T12:54:24.882Z,11.00
2022-11-18T12:55:25.173Z,6.70
2022-11-18T12:56:25.438Z,6.60
2022-11-18T12:57:25.704Z,8.20
2022-11-18T12:58:25.973Z,7.70
2022-11-18T12:59:26.257Z,8.70
2022-11-18T13:00:26.551Z,6.30
2022-11-18T13:01:26.811Z,5.80
2022-11-18T13:02:27.079Z,5.70
2022-11-18T13:03:27.375Z,5.20
2022-11-18T13:04:27.671Z,3.50
2022-11-18T13:05:27.927Z,5.10
2022-11-18T13:06:28.218Z,6.50
2022-11-18T13:07:28.485Z,5.90
2022-11-18T13:08:28.861Z,4.50
2022-11-18T13:09:29.127Z,2.50
2022-11-18T13:10:29.388Z,2.80
2022-11-18T13:11:29.660Z,3.50
2022-11-18T13:12:29.923Z,3.90
2022-11-18T13:13:30.206Z,3.90
2022-11-18T13:14:30.513Z,3.40
2022-11-18T13:15:30.764Z,3.10
2022-11-18T13:16:35.531Z,3.70
2022-11-18T13:17:32.262Z,4.20
2022-11-18T13:18:31.569Z,4.80
2022-11-18T13:19:31.763Z,4.60
2022-11-18T13:20:32.108Z,4.70
2022-11-18T13:21:32.491Z,6.10
2022-11-18T13:22:32.580Z,5.70
2022-11-18T13:23:32.867Z,3.80
2022-11-18T13:24:33.173Z,4.30
2022-11-18T13:25:33.421Z,5.10
2022-11-18T13:26:33.847Z,4.90